createdAt,value
2022-08-03T00:03:35.312Z,28.71
2022-08-03T00:08:37.665Z,28.74
2022-08-03T00:13:42.504Z,28.72
2022-08-03T00:18:44.724Z,28.77
2022-08-03T00:23:51.632Z,28.69
2022-08-03T00:28:54.854Z,28.67
2022-08-03T00:33:59.701Z,28.65
2022-08-03T00:39:05.568Z,28.58
2022-08-03T00:44:07.680Z,28.52
2022-08-03T00:49:09.872Z,28.48
2022-08-03T00:54:12.030Z,28.45
2022-08-03T00:59:14.893Z,28.43
2022-08-03T01:04:17.156Z,28.39
2022-08-03T01:09:46.531Z,28.35
2022-08-03T01:15:03.205Z,28.32
2022-08-03T01:20:12.177Z,28.33
2022-08-03T01:25:28.473Z,28.31
2022-08-03T01:30:34.004Z,28.31
2022-08-03T01:35:39.537Z,28.30
2022-08-03T01:40:45.067Z,28.28
2022-08-03T01:45:48.567Z,28.30
2022-08-03T01:50:52.133Z,28.35
2022-08-03T01:55:57.652Z,28.40
2022-08-03T02:01:01.948Z,28.35
2022-08-03T02:07:01.223Z,28.35
2022-08-03T02:11:31.791Z,28.36
2022-08-03T02:16:35.122Z,28.32
2022-08-03T02:21:56.892Z,28.33
2022-08-03T02:27:01.558Z,28.32
2022-08-03T02:32:04.729Z,28.31
2022-08-03T02:37:08.844Z,28.23
2022-08-03T02:42:14.534Z,28.26
2022-08-03T02:47:21.341Z,28.26
2022-08-03T02:52:26.007Z,28.27
2022-08-03T02:57:30.197Z,28.27
2022-08-03T03:02:33.209Z,28.28
2022-08-03T03:07:53.067Z,28.24
2022-08-03T03:12:59.705Z,28.26
2022-08-03T03:18:02.614Z,28.19
2022-08-03T03:23:05.569Z,28.20
2022-08-03T03:28:07.846Z,28.16
2022-08-03T03:33:10.268Z,28.10
2022-08-03T03:38:12.475Z,28.06
2022-08-03T03:43:14.789Z,28.02
2022-08-03T03:48:16.980Z,28.01
2022-08-03T03:53:19.273Z,28.01
2022-08-03T03:58:22.002Z,28.00
2022-08-03T04:03:27.277Z,27.99
2022-08-03T04:08:47.786Z,27.96
2022-08-03T04:14:11.280Z,27.92
2022-08-03T04:19:30.576Z,27.91
2022-08-03T04:24:41.793Z,27.94
2022-08-03T04:29:49.544Z,27.90
2022-08-03T04:34:52.646Z,27.86
2022-08-03T04:39:57.628Z,27.82
2022-08-03T04:45:01.617Z,27.79
2022-08-03T04:50:09.147Z,27.85
2022-08-03T04:55:28.968Z,27.83
2022-08-03T05:00:31.100Z,27.85
2022-08-03T05:05:50.354Z,27.85
2022-08-03T05:10:52.983Z,27.86
2022-08-03T05:15:55.146Z,27.83
2022-08-03T05:20:57.259Z,27.79
2022-08-03T05:25:59.407Z,27.74
2022-08-03T05:31:01.431Z,27.68
2022-08-03T05:36:04.536Z,27.64
2022-08-03T05:41:21.155Z,27.60
2022-08-03T05:46:25.961Z,27.54
2022-08-03T05:51:29.205Z,27.56
2022-08-03T05:56:31.504Z,27.60
2022-08-03T06:01:33.791Z,27.61
2022-08-03T06:06:35.849Z,27.63
2022-08-03T06:11:38.504Z,27.72
2022-08-03T06:16:40.727Z,27.79
2022-08-03T06:21:42.877Z,27.86
2022-08-03T06:26:45.063Z,27.92
2022-08-03T06:31:47.260Z,27.97
2022-08-03T06:36:52.290Z,28.00
2022-08-03T06:41:54.861Z,28.06
2022-08-03T06:46:58.927Z,28.05
2022-08-03T06:52:37.461Z,28.11
2022-08-03T06:57:23.186Z,28.16
2022-08-03T07:02:28.283Z,28.19
2022-08-03T07:07:30.727Z,28.24
2022-08-03T07:12:34.071Z,28.24
2022-08-03T07:17:36.655Z,28.25
2022-08-03T07:22:39.167Z,28.24
2022-08-03T07:27:47.816Z,28.28
2022-08-03T07:32:53.527Z,28.29
2022-08-03T07:37:55.648Z,28.40
2022-08-03T07:42:58.628Z,28.46
2022-08-03T07:48:00.522Z,28.43
2022-08-03T07:53:02.636Z,28.48
2022-08-03T07:58:04.989Z,28.50
2022-08-03T08:03:07.366Z,28.50
2022-08-03T08:08:09.459Z,28.54
2022-08-03T08:13:11.693Z,28.58
2022-08-03T08:18:13.848Z,28.60
2022-08-03T08:23:29.857Z,28.65
2022-08-03T08:28:38.563Z,28.74
2022-08-03T08:39:02.843Z,28.82
2022-08-03T08:44:05.280Z,28.91
2022-08-03T08:49:10.150Z,28.88
2022-08-03T08:54:13.958Z,28.89
2022-08-03T08:59:16.587Z,28.93
2022-08-03T09:04:19.125Z,28.98
2022-08-03T09:10:08.189Z,29.06
2022-08-03T09:15:00.829Z,29.08
2022-08-03T09:20:08.701Z,29.16
2022-08-03T09:25:24.295Z,29.15
2022-08-03T09:30:33.236Z,29.16
2022-08-03T09:35:53.927Z,29.21
2022-08-03T09:41:00.465Z,29.23
2022-08-03T09:46:04.838Z,29.27
2022-08-03T09:51:14.218Z,29.26
2022-08-03T09:56:44.780Z,29.24
2022-08-03T10:01:46.944Z,29.28
2022-08-03T10:07:22.768Z,29.35
2022-08-03T10:12:25.777Z,29.38
2022-08-03T10:17:29.281Z,29.38
2022-08-03T10:22:36.370Z,29.42
2022-08-03T10:27:42.924Z,29.46
2022-08-03T10:32:52.686Z,29.40
2022-08-03T10:38:03.422Z,29.40
2022-08-03T10:43:13.451Z,29.34
2022-08-03T10:48:16.721Z,29.35
2022-08-03T10:53:38.041Z,29.32
2022-08-03T10:58:57.643Z,29.32
2022-08-03T11:04:00.214Z,29.39
2022-08-03T11:09:11.197Z,29.44
2022-08-03T11:14:19.592Z,29.53
2022-08-03T11:19:28.266Z,29.60
2022-08-03T11:24:51.585Z,29.63
2022-08-03T11:30:09.772Z,29.65
2022-08-03T11:35:34.014Z,29.68
2022-08-03T11:40:39.423Z,29.71
2022-08-03T11:46:00.805Z,29.72
2022-08-03T11:51:04.965Z,29.70
2022-08-03T11:56:12.897Z,29.70
2022-08-03T12:01:21.258Z,29.74
2022-08-03T12:06:25.124Z,29.77
2022-08-03T12:11:29.520Z,29.86
2022-08-03T12:16:31.718Z,29.87
2022-08-03T12:21:34.508Z,29.87
2022-08-03T12:27:02.778Z,29.85
2022-08-03T12:32:05.128Z,29.92
2022-08-03T12:37:21.897Z,29.89
2022-08-03T12:42:36.273Z,29.98
2022-08-03T12:48:13.525Z,30.01
2022-08-03T12:53:29.158Z,29.98
2022-08-03T12:58:34.491Z,30.02
2022-08-03T13:03:49.597Z,29.93
2022-08-03T13:09:05.709Z,29.84
2022-08-03T13:14:07.940Z,29.73
2022-08-03T13:19:15.635Z,29.76
2022-08-03T13:24:19.338Z,29.72
2022-08-03T13:29:21.491Z,29.71
2022-08-03T13:34:24.188Z,29.62
2022-08-03T13:39:32.496Z,29.75
2022-08-03T13:44:37.236Z,29.81
2022-08-03T13:49:39.304Z,29.84
2022-08-03T13:54:41.535Z,29.90
2022-08-03T13:59:49.978Z,29.95
2022-08-03T14:04:52.259Z,29.96
2022-08-03T14:09:54.442Z,30.00
2022-08-03T14:14:59.578Z,30.01
2022-08-03T14:20:09.535Z,30.03
2022-08-03T14:25:27.596Z,30.01
2022-08-03T14:30:29.701Z,30.04
2022-08-03T14:35:31.763Z,30.02
2022-08-03T14:40:34.072Z,30.02
2022-08-03T14:45:36.152Z,30.03
2022-08-03T14:50:43.140Z,29.97
2022-08-03T14:55:51.570Z,30.01
2022-08-03T15:00:55.737Z,30.00
2022-08-03T15:05:57.828Z,29.99
2022-08-03T15:10:59.942Z,30.04
2022-08-03T15:16:01.977Z,30.07
2022-08-03T15:21:04.198Z,30.03
2022-08-03T15:26:30.898Z,30.03
2022-08-03T15:31:28.380Z,30.01
2022-08-03T15:36:31.913Z,30.04
2022-08-03T15:41:34.000Z,30.03
2022-08-03T15:46:36.087Z,30.07
2022-08-03T15:51:38.630Z,30.09
2022-08-03T15:56:45.295Z,30.13
2022-08-03T16:01:48.745Z,30.13
2022-08-03T16:06:50.955Z,30.17
2022-08-03T16:11:53.091Z,30.12
2022-08-03T16:16:55.156Z,30.14
2022-08-03T16:21:57.298Z,30.11
2022-08-03T16:27:00.514Z,30.19
2022-08-03T16:32:09.349Z,30.25
2022-08-03T16:37:37.171Z,30.23
2022-08-03T16:42:35.582Z,30.22
2022-08-03T16:47:37.805Z,30.22
2022-08-03T16:52:42.396Z,30.23
2022-08-03T16:57:58.796Z,30.26
2022-08-03T17:03:18.823Z,30.27
2022-08-03T17:08:27.225Z,30.22
2022-08-03T17:13:39.403Z,30.25
2022-08-03T17:18:55.650Z,30.18
2022-08-03T17:24:21.436Z,30.21
2022-08-03T17:29:29.739Z,30.14
2022-08-03T17:34:32.475Z,30.16
2022-08-03T17:39:58.262Z,30.20
2022-08-03T17:44:57.865Z,30.19
2022-08-03T17:49:59.916Z,30.14
2022-08-03T17:55:56.383Z,30.06
2022-08-03T18:00:59.494Z,30.04
2022-08-03T18:11:35.556Z,30.05
2022-08-03T18:16:44.708Z,30.12
2022-08-03T18:22:03.419Z,30.08
2022-08-03T18:27:08.646Z,30.09
2022-08-03T18:32:16.756Z,30.11
2022-08-03T18:37:24.994Z,30.12
2022-08-03T18:42:27.640Z,30.12
2022-08-03T18:47:52.027Z,30.10
2022-08-03T18:53:16.231Z,30.15
2022-08-03T18:58:47.327Z,30.11
2022-08-03T19:03:58.959Z,30.11
2022-08-03T19:09:04.293Z,30.06
2022-08-03T19:14:11.474Z,30.03
2022-08-03T19:19:17.625Z,30.07
2022-08-03T19:24:23.384Z,30.08
2022-08-03T19:34:53.452Z,30.18
2022-08-03T19:39:58.244Z,30.19
2022-08-03T19:45:13.804Z,30.13
2022-08-03T19:50:20.322Z,30.16
2022-08-03T19:55:23.181Z,30.12
2022-08-03T20:00:32.686Z,30.07
2022-08-03T20:05:45.100Z,30.07
2022-08-03T20:10:55.238Z,30.03
2022-08-03T20:15:57.258Z,29.98
2022-08-03T20:21:03.790Z,30.00
2022-08-03T20:26:20.454Z,29.92
2022-08-03T20:31:32.578Z,29.95
2022-08-03T20:36:38.714Z,29.99
2022-08-03T20:41:41.322Z,29.93
2022-08-03T20:46:53.478Z,29.91
2022-08-03T20:52:02.349Z,29.95
2022-08-03T20:57:07.027Z,29.88
2022-08-03T21:02:12.419Z,29.96
2022-08-03T21:07:24.322Z,29.98
2022-08-03T21:12:53.870Z,29.90
2022-08-03T21:13:05.401Z,30.04
2022-08-03T21:13:10.956Z,30.11
2022-08-03T21:17:58.270Z,29.99
2022-08-03T21:23:03.514Z,29.95
2022-08-03T21:28:09.747Z,29.93
2022-08-03T21:33:12.087Z,29.95
2022-08-03T21:38:29.442Z,29.93
2022-08-03T21:43:32.404Z,29.91
2022-08-03T21:48:41.116Z,29.88
2022-08-03T21:54:02.558Z,29.94
2022-08-03T21:59:08.270Z,29.95
2022-08-03T22:04:45.864Z,30.00
2022-08-03T22:09:35.502Z,29.96
2022-08-03T22:14:37.984Z,30.00
2022-08-03T22:19:40.224Z,29.95
2022-08-03T22:24:44.902Z,29.93
2022-08-03T22:29:47.497Z,29.84
2022-08-03T22:34:49.835Z,29.68
2022-08-03T22:39:53.127Z,29.48
2022-08-03T22:44:55.840Z,29.39
2022-08-03T22:50:31.898Z,29.33
2022-08-03T22:55:24.902Z,29.28
2022-08-03T23:07:31.066Z,29.32
2022-08-03T23:12:36.558Z,29.34
2022-08-03T23:17:58.041Z,29.37
2022-08-03T23:23:01.577Z,29.31
2022-08-03T23:28:05.017Z,29.34
2022-08-03T23:33:09.492Z,29.39
2022-08-03T23:38:22.994Z,29.30
2022-08-03T23:43:44.764Z,29.33
2022-08-03T23:48:50.364Z,29.35
2022-08-03T23:54:03.559Z,29.29
2022-08-03T23:59:11.558Z,29.27
